createdAt,value
2018-01-19T00:02:24.262Z,19.60
2018-01-19T00:04:52.949Z,21.00
2018-01-19T00:07:21.612Z,20.07
2018-01-19T00:09:50.423Z,19.97
2018-01-19T00:12:19.094Z,20.40
2018-01-19T00:14:47.771Z,21.13
2018-01-19T00:17:15.935Z,21.53
2018-01-19T00:19:43.853Z,21.30
2018-01-19T00:22:11.771Z,19.67
2018-01-19T00:24:39.853Z,21.13
2018-01-19T00:27:07.917Z,22.17
2018-01-19T00:29:35.869Z,22.20
2018-01-19T00:32:04.043Z,21.00
2018-01-19T00:34:31.970Z,20.20
2018-01-19T00:36:59.971Z,22.10
2018-01-19T00:39:28.011Z,21.70
2018-01-19T00:41:56.663Z,19.57
2018-01-19T00:44:24.594Z,21.43
2018-01-19T00:46:52.699Z,19.97
2018-01-19T00:49:20.640Z,20.77
2018-01-19T00:51:48.750Z,20.47
2018-01-19T01:07:22.730Z,22.33
2018-01-19T01:09:50.647Z,23.17
2018-01-19T01:12:19.283Z,21.73
2018-01-19T01:14:47.357Z,22.93
2018-01-19T01:17:15.286Z,22.53
2018-01-19T01:19:43.969Z,22.10
2018-01-19T01:22:12.769Z,22.77
2018-01-19T01:24:41.412Z,21.47
2018-01-19T01:27:09.445Z,22.00
2018-01-19T01:29:37.520Z,24.40
2018-01-19T01:32:05.431Z,23.70
2018-01-19T01:34:33.371Z,25.10
2018-01-19T01:37:01.481Z,22.77
2018-01-19T01:39:29.538Z,23.50
2018-01-19T01:41:57.455Z,22.80
2018-01-19T01:44:26.268Z,23.97
2018-01-19T01:46:54.232Z,24.07
2018-01-19T01:49:22.164Z,24.23
2018-01-19T01:51:51.091Z,23.23
2018-01-19T01:54:19.025Z,22.57
2018-01-19T01:56:47.778Z,23.37
2018-01-19T01:59:15.832Z,22.50
2018-01-19T02:01:43.765Z,23.27
2018-01-19T02:04:12.453Z,23.40
2018-01-19T02:06:41.259Z,22.27
2018-01-19T02:09:09.171Z,24.13
2018-01-19T02:11:37.101Z,22.60
2018-01-19T02:14:05.193Z,25.80
2018-01-19T02:16:33.201Z,22.33
2018-01-19T02:19:01.133Z,22.87
2018-01-19T02:21:29.221Z,25.60
2018-01-19T02:23:57.147Z,23.30
2018-01-19T02:26:25.824Z,26.17
2018-01-19T02:28:54.623Z,24.83
2018-01-19T02:31:23.313Z,26.13
2018-01-19T02:33:51.999Z,26.73
2018-01-19T02:36:20.859Z,25.23
2018-01-19T02:38:48.763Z,25.83
2018-01-19T02:41:17.441Z,27.00
2018-01-19T02:43:46.243Z,27.03
2018-01-19T02:46:14.234Z,25.90
2018-01-19T02:48:42.173Z,25.07
2018-01-19T02:51:10.975Z,25.90
2018-01-19T02:53:39.031Z,25.67
2018-01-19T02:56:07.703Z,25.47
2018-01-19T02:58:35.771Z,26.80
2018-01-19T03:01:03.729Z,25.67
2018-01-19T03:03:31.655Z,25.57
2018-01-19T03:05:59.787Z,25.63
2018-01-19T03:08:27.729Z,25.13
2018-01-19T03:10:55.628Z,25.57
2018-01-19T03:13:23.705Z,25.80
2018-01-19T03:15:51.639Z,26.27
2018-01-19T03:18:19.569Z,23.40
2018-01-19T03:20:47.625Z,23.63
2018-01-19T03:23:16.302Z,25.07
2018-01-19T03:25:45.005Z,25.53
2018-01-19T03:28:13.798Z,25.47
2018-01-19T03:30:42.457Z,24.73
2018-01-19T03:33:10.381Z,24.33
2018-01-19T03:35:38.513Z,24.93
2018-01-19T03:38:07.175Z,24.60
2018-01-19T03:40:35.108Z,24.43
2018-01-19T03:43:03.207Z,22.77
2018-01-19T03:45:31.185Z,25.47
2018-01-19T03:47:59.125Z,24.03
2018-01-19T03:50:27.167Z,24.80
2018-01-19T03:52:55.862Z,23.90
2018-01-19T03:55:24.822Z,24.57
2018-01-19T03:57:53.000Z,27.17
2018-01-19T04:00:20.979Z,24.33
2018-01-19T04:02:49.669Z,23.70
2018-01-19T04:05:18.447Z,23.23
2018-01-19T04:07:46.398Z,23.20
2018-01-19T04:10:14.345Z,22.03
2018-01-19T04:12:42.405Z,22.43
2018-01-19T04:15:10.343Z,23.47
2018-01-19T04:17:38.957Z,21.60
2018-01-19T04:20:07.030Z,22.70
2018-01-19T04:22:34.991Z,24.53
2018-01-19T04:25:02.946Z,25.20
2018-01-19T04:27:31.774Z,23.63
2018-01-19T04:29:59.745Z,28.17
2018-01-19T04:32:27.668Z,26.47
2018-01-19T04:34:56.475Z,25.83
2018-01-19T04:37:25.222Z,26.27
2018-01-19T04:39:53.285Z,27.27
2018-01-19T04:42:21.347Z,27.10
2018-01-19T04:44:49.265Z,27.23
2018-01-19T04:47:17.943Z,27.40
2018-01-19T04:49:46.002Z,28.80
2018-01-19T04:52:13.944Z,28.17
2018-01-19T04:54:41.862Z,27.73
2018-01-19T04:57:11.061Z,27.20
2018-01-19T04:59:39.743Z,27.30
2018-01-19T05:02:08.035Z,27.93
2018-01-19T05:04:37.491Z,28.57
2018-01-19T05:07:05.477Z,27.87
2018-01-19T05:09:35.421Z,28.10
2018-01-19T05:12:09.533Z,29.30
2018-01-19T05:14:43.794Z,27.20
2018-01-19T05:17:11.900Z,26.77
2018-01-19T05:19:39.870Z,26.33
2018-01-19T05:22:07.817Z,22.33
2018-01-19T05:24:35.906Z,22.70
2018-01-19T05:27:03.956Z,20.10
2018-01-19T05:29:31.901Z,19.77
2018-01-19T05:31:59.995Z,20.40
2018-01-19T05:34:27.949Z,17.73
2018-01-19T05:36:55.947Z,19.40
2018-01-19T05:39:24.045Z,19.33
2018-01-19T05:41:51.984Z,16.57
2018-01-19T05:44:19.891Z,15.97
2018-01-19T05:46:48.055Z,18.00
2018-01-19T05:49:15.985Z,16.83
2018-01-19T05:51:43.914Z,15.80
2018-01-19T05:54:11.985Z,12.43
2018-01-19T05:56:39.925Z,14.90
2018-01-19T05:59:07.986Z,12.57
2018-01-19T06:14:51.149Z,12.73
2018-01-19T06:17:19.937Z,12.37
2018-01-19T06:19:48.839Z,11.37
2018-01-19T06:22:17.661Z,12.20
2018-01-19T06:24:45.583Z,12.63
2018-01-19T06:27:13.613Z,12.50
2018-01-19T06:29:41.670Z,12.60
2018-01-19T06:32:09.595Z,11.83
2018-01-19T06:34:37.499Z,12.90
2018-01-19T06:37:06.344Z,12.53
2018-01-19T06:39:34.281Z,11.63
2018-01-19T06:42:02.234Z,11.90
2018-01-19T06:44:30.311Z,13.43
2018-01-19T06:46:58.317Z,10.93
2018-01-19T06:49:26.383Z,10.83
2018-01-19T06:51:54.527Z,11.80
2018-01-19T06:54:22.499Z,10.50
2018-01-19T06:56:50.534Z,10.37
2018-01-19T06:59:18.905Z,10.13
2018-01-19T07:01:47.026Z,11.57
2018-01-19T07:04:14.999Z,10.20
2018-01-19T07:06:43.149Z,10.70
2018-01-19T07:09:11.340Z,11.30
2018-01-19T07:11:39.293Z,11.60
2018-01-19T07:14:08.111Z,10.77
2018-01-19T07:16:36.184Z,10.77
2018-01-19T07:19:04.217Z,10.10
2018-01-19T07:21:39.097Z,9.30
2018-01-19T07:24:07.389Z,10.60
2018-01-19T07:26:35.413Z,8.60
2018-01-19T07:29:04.264Z,9.57
2018-01-19T07:31:32.209Z,8.90
2018-01-19T07:34:00.171Z,8.67
2018-01-19T07:36:28.499Z,9.20
2018-01-19T07:38:56.543Z,9.00
2018-01-19T07:41:24.509Z,9.10
2018-01-19T07:43:53.798Z,8.97
2018-01-19T07:46:22.189Z,8.90
2018-01-19T07:48:50.239Z,9.47
2018-01-19T07:51:18.287Z,8.50
2018-01-19T07:53:46.991Z,8.33
2018-01-19T07:56:14.967Z,7.50
2018-01-19T07:58:43.028Z,8.50
2018-01-19T08:01:11.139Z,7.20
2018-01-19T08:03:40.335Z,7.53
2018-01-19T08:06:08.429Z,7.60
2018-01-19T08:08:36.376Z,7.77
2018-01-19T08:11:04.316Z,8.00
2018-01-19T08:13:33.130Z,6.73
2018-01-19T08:16:01.121Z,7.50
2018-01-19T08:18:29.075Z,8.07
2018-01-19T08:20:57.166Z,7.90
2018-01-19T08:23:25.119Z,7.50
2018-01-19T08:25:53.047Z,7.87
2018-01-19T08:28:21.989Z,7.87
2018-01-19T08:30:49.912Z,8.40
2018-01-19T08:33:18.597Z,7.27
2018-01-19T08:35:47.387Z,7.67
2018-01-19T08:38:16.065Z,8.00
2018-01-19T08:40:44.010Z,8.20
2018-01-19T08:43:12.066Z,8.67
2018-01-19T08:45:40.039Z,9.50
2018-01-19T08:48:07.996Z,9.57
2018-01-19T08:50:36.031Z,9.20
2018-01-19T08:53:04.691Z,9.43
2018-01-19T08:55:32.662Z,9.77
2018-01-19T08:58:00.730Z,10.10
2018-01-19T09:00:28.653Z,9.60
2018-01-19T09:02:56.721Z,8.83
2018-01-19T09:05:24.800Z,9.60
2018-01-19T09:07:52.730Z,10.47
2018-01-19T09:10:20.687Z,11.70
2018-01-19T09:12:48.800Z,13.20
2018-01-19T09:15:16.745Z,11.10
2018-01-19T09:17:44.696Z,11.57
2018-01-19T09:20:13.725Z,10.70
2018-01-19T09:22:47.737Z,10.23
2018-01-19T09:25:16.698Z,11.43
2018-01-19T09:27:48.843Z,10.77
2018-01-19T09:30:20.472Z,10.20
2018-01-19T09:32:48.809Z,9.50
2018-01-19T09:35:16.879Z,10.80
2018-01-19T09:37:44.894Z,10.37
2018-01-19T09:40:12.927Z,10.50
2018-01-19T09:42:41.789Z,9.93
2018-01-19T09:45:11.476Z,10.40
2018-01-19T09:47:39.389Z,10.40
2018-01-19T09:50:07.411Z,11.27
2018-01-19T09:52:35.524Z,11.60
2018-01-19T09:55:03.525Z,12.33
2018-01-19T09:57:32.251Z,10.37
2018-01-19T10:00:01.455Z,11.03
2018-01-19T10:02:29.882Z,11.33
2018-01-19T10:04:58.027Z,11.97
2018-01-19T10:07:26.109Z,11.17
2018-01-19T10:09:54.209Z,12.43
2018-01-19T10:14:56.295Z,11.60
2018-01-19T10:17:24.358Z,10.70
2018-01-19T10:19:52.499Z,11.90
2018-01-19T10:22:20.586Z,11.00
2018-01-19T10:24:48.543Z,10.47
2018-01-19T10:27:16.569Z,10.07
2018-01-19T10:29:45.597Z,11.47
2018-01-19T10:32:13.538Z,10.73
2018-01-19T10:34:42.235Z,11.23
2018-01-19T10:37:10.406Z,10.57
2018-01-19T10:39:43.403Z,10.90
2018-01-19T10:42:12.124Z,9.93
2018-01-19T10:44:40.164Z,11.63
2018-01-19T10:47:08.207Z,11.50
2018-01-19T10:49:37.077Z,10.80
2018-01-19T10:52:05.403Z,12.50
2018-01-19T10:54:33.612Z,10.07
2018-01-19T10:57:01.861Z,11.63
2018-01-19T10:59:29.786Z,10.70
2018-01-19T11:01:57.718Z,11.40
2018-01-19T11:04:26.099Z,11.23
2018-01-19T11:06:54.202Z,11.73
2018-01-19T11:09:22.157Z,11.90
2018-01-19T11:11:50.269Z,11.90
2018-01-19T11:14:18.959Z,12.33
2018-01-19T11:16:47.715Z,13.37
2018-01-19T11:19:15.896Z,15.20
2018-01-19T11:21:43.861Z,12.70
2018-01-19T11:24:11.831Z,16.00
2018-01-19T11:26:39.928Z,13.93
2018-01-19T11:29:07.928Z,12.47
2018-01-19T11:31:36.589Z,13.90
2018-01-19T11:34:04.667Z,10.93
2018-01-19T11:36:33.404Z,12.10
2018-01-19T11:39:01.335Z,11.90
2018-01-19T11:41:30.172Z,12.90
2018-01-19T11:43:58.126Z,12.03
2018-01-19T11:46:26.090Z,12.20
2018-01-19T11:48:54.167Z,11.63
2018-01-19T11:51:22.109Z,11.60
2018-01-19T11:53:50.782Z,14.07
2018-01-19T11:56:18.928Z,11.90
2018-01-19T11:58:46.999Z,11.73
2018-01-19T12:01:14.937Z,12.30
2018-01-19T12:03:42.981Z,11.13
2018-01-19T12:06:11.706Z,10.63
2018-01-19T12:08:39.767Z,10.00
2018-01-19T12:11:07.833Z,10.70
2018-01-19T12:13:35.771Z,11.27
2018-01-19T12:16:03.837Z,11.37
2018-01-19T12:18:31.925Z,10.20
2018-01-19T12:21:00.629Z,10.93
2018-01-19T12:23:29.325Z,10.87
2018-01-19T12:25:57.416Z,10.40
2018-01-19T12:28:25.351Z,9.80
2018-01-19T12:30:54.008Z,10.00
2018-01-19T12:33:22.083Z,10.57
2018-01-19T12:35:50.015Z,9.37
2018-01-19T12:38:17.941Z,9.70
2018-01-19T12:40:46.735Z,10.23
2018-01-19T12:43:15.397Z,9.83
2018-01-19T12:45:43.331Z,10.50
2018-01-19T12:48:11.363Z,10.10
2018-01-19T12:50:40.030Z,10.00
2018-01-19T12:53:07.943Z,11.87
2018-01-19T12:55:36.071Z,10.13
2018-01-19T12:58:04.015Z,11.30
2018-01-19T13:00:31.942Z,10.20
2018-01-19T13:03:00.743Z,9.70
2018-01-19T13:05:28.748Z,10.10
2018-01-19T13:07:56.689Z,10.50
2018-01-19T13:10:24.883Z,9.53
2018-01-19T13:12:52.789Z,10.23
2018-01-19T13:15:20.750Z,9.63
2018-01-19T13:17:48.841Z,9.60
2018-01-19T13:20:16.769Z,11.07
2018-01-19T13:22:44.705Z,14.00
2018-01-19T13:25:13.516Z,23.17
2018-01-19T13:27:41.509Z,28.03
2018-01-19T13:30:09.456Z,43.27
2018-01-19T13:32:37.496Z,24.17
2018-01-19T13:35:06.171Z,12.83
2018-01-19T13:37:34.100Z,10.87
2018-01-19T13:40:02.297Z,9.80
2018-01-19T13:42:30.234Z,10.30
2018-01-19T13:44:58.174Z,10.40
2018-01-19T13:47:26.970Z,10.80
2018-01-19T13:49:54.902Z,10.40
2018-01-19T13:52:22.826Z,10.63
2018-01-19T13:54:50.859Z,11.10
2018-01-19T13:57:19.543Z,11.30
2018-01-19T13:59:48.242Z,11.50
2018-01-19T14:02:17.053Z,9.60
2018-01-19T14:04:44.993Z,11.90
2018-01-19T14:07:13.745Z,11.97
2018-01-19T14:09:41.799Z,10.77
2018-01-19T14:12:09.873Z,11.73
2018-01-19T14:14:37.839Z,14.10
2018-01-19T14:17:05.965Z,12.53
2018-01-19T14:19:33.913Z,16.67
2018-01-19T14:22:01.807Z,17.30
2018-01-19T14:24:29.880Z,14.03
2018-01-19T14:26:57.831Z,13.50
2018-01-19T14:29:25.768Z,16.30
2018-01-19T14:31:53.825Z,13.37
2018-01-19T14:34:21.743Z,13.50
2018-01-19T14:36:49.717Z,13.47
2018-01-19T14:39:17.837Z,12.77
2018-01-19T14:41:45.767Z,13.10
2018-01-19T14:44:13.712Z,11.37
2018-01-19T14:46:41.794Z,13.03
2018-01-19T14:49:09.708Z,12.03
2018-01-19T14:51:38.384Z,13.13
2018-01-19T14:54:07.177Z,14.20
2018-01-19T14:56:35.909Z,13.40
2018-01-19T14:59:03.826Z,14.03
2018-01-19T15:01:32.603Z,13.97
2018-01-19T15:04:00.519Z,15.03
2018-01-19T15:06:28.499Z,14.70
2018-01-19T15:08:56.549Z,13.33
2018-01-19T15:11:24.466Z,15.90
2018-01-19T15:13:52.530Z,14.83
2018-01-19T15:16:20.583Z,15.10
2018-01-19T15:18:48.517Z,16.50
2018-01-19T15:21:17.199Z,13.73
2018-01-19T15:23:46.112Z,16.47
2018-01-19T15:26:14.123Z,15.50
2018-01-19T15:28:42.059Z,15.03
2018-01-19T15:31:10.148Z,14.47
2018-01-19T15:33:38.079Z,15.27
2018-01-19T15:36:06.736Z,18.03
2018-01-19T15:38:34.794Z,15.43
2018-01-19T15:41:02.742Z,14.73
2018-01-19T15:43:30.681Z,16.27
2018-01-19T15:45:59.558Z,16.87
2018-01-19T15:48:27.476Z,16.40
2018-01-19T15:50:55.381Z,16.60
2018-01-19T15:53:23.438Z,17.70
2018-01-19T15:55:51.423Z,16.47
2018-01-19T15:58:19.369Z,16.83
2018-01-19T16:00:47.472Z,15.90
2018-01-19T16:03:15.411Z,17.20
2018-01-19T16:05:43.376Z,16.10
2018-01-19T16:08:11.487Z,18.20
2018-01-19T16:10:39.443Z,16.87
2018-01-19T16:13:07.414Z,18.00
2018-01-19T16:15:35.700Z,17.43
2018-01-19T16:18:03.643Z,18.30
2018-01-19T16:20:32.771Z,17.30
2018-01-19T16:23:00.829Z,18.43
2018-01-19T16:25:28.778Z,16.50
2018-01-19T16:27:56.691Z,17.67
2018-01-19T16:30:24.871Z,16.33
2018-01-19T16:32:53.715Z,17.47
2018-01-19T16:35:22.457Z,18.63
2018-01-19T16:37:51.481Z,18.67
2018-01-19T16:40:19.435Z,19.10
2018-01-19T16:42:48.229Z,20.33
2018-01-19T16:45:17.043Z,18.97
2018-01-19T16:47:45.081Z,20.77
2018-01-19T16:50:13.770Z,21.40
2018-01-19T16:52:42.652Z,21.40
2018-01-19T16:55:11.361Z,23.23
2018-01-19T16:57:39.295Z,20.30
2018-01-19T17:00:07.395Z,21.27
2018-01-19T17:02:36.057Z,21.83
2018-01-19T17:05:04.013Z,21.10
2018-01-19T17:07:32.091Z,21.20
2018-01-19T17:10:00.609Z,20.63
2018-01-19T17:12:29.388Z,21.87
2018-01-19T17:14:58.199Z,20.17
2018-01-19T17:17:28.733Z,21.57
2018-01-19T17:19:56.822Z,19.37
2018-01-19T17:22:24.899Z,21.30
2018-01-19T17:24:52.878Z,20.90
2018-01-19T17:27:20.829Z,23.67
2018-01-19T17:29:51.351Z,23.20
2018-01-19T17:32:19.469Z,22.77
2018-01-19T17:34:47.385Z,26.27
2018-01-19T17:37:15.524Z,27.47
2018-01-19T17:39:43.473Z,28.87
2018-01-19T17:42:11.423Z,26.17
2018-01-19T17:44:39.461Z,28.93
2018-01-19T17:47:08.217Z,27.60
2018-01-19T17:49:39.513Z,23.93
2018-01-19T17:52:07.573Z,23.27
2018-01-19T17:54:35.510Z,24.23
2018-01-19T18:10:06.958Z,35.30
2018-01-19T18:12:35.070Z,32.67
2018-01-19T18:15:03.174Z,33.67
2018-01-19T18:17:31.630Z,29.30
2018-01-19T18:19:59.570Z,26.97
2018-01-19T18:22:27.727Z,30.43
2018-01-19T18:24:55.919Z,28.43
2018-01-19T18:27:24.150Z,28.47
2018-01-19T18:29:52.191Z,26.30
2018-01-19T18:32:21.001Z,25.93
2018-01-19T18:34:48.929Z,25.27
2018-01-19T18:37:16.955Z,25.60
2018-01-19T18:39:45.028Z,26.60
2018-01-19T18:42:12.925Z,26.90
2018-01-19T18:44:40.831Z,27.37
2018-01-19T18:47:08.986Z,25.33
2018-01-19T18:49:37.125Z,28.33
2018-01-19T18:52:05.065Z,26.77
2018-01-19T18:54:33.127Z,29.53
2018-01-19T18:57:01.844Z,29.00
2018-01-19T18:59:29.998Z,29.63
2018-01-19T19:01:58.186Z,28.47
2018-01-19T19:04:26.241Z,27.17
2018-01-19T19:06:55.240Z,26.80
2018-01-19T19:09:23.575Z,27.33
2018-01-19T19:11:51.523Z,27.60
2018-01-19T19:14:19.427Z,26.40
2018-01-19T19:16:48.325Z,28.83
2018-01-19T19:19:17.037Z,25.67
2018-01-19T19:21:45.108Z,26.57
2018-01-19T19:24:14.107Z,26.63
2018-01-19T19:26:42.089Z,29.67
2018-01-19T19:29:10.030Z,28.53
2018-01-19T19:31:38.817Z,28.87
2018-01-19T19:34:07.565Z,28.17
2018-01-19T19:36:35.519Z,28.93
2018-01-19T19:39:04.074Z,29.10
2018-01-19T19:41:32.049Z,28.43
2018-01-19T19:44:00.219Z,28.20
2018-01-19T19:46:28.366Z,28.73
2018-01-19T19:48:56.293Z,29.13
2018-01-19T19:51:24.376Z,28.67
2018-01-19T19:53:52.563Z,26.70
2018-01-19T19:56:22.527Z,28.50
2018-01-19T19:58:50.513Z,29.80
2018-01-19T20:01:18.582Z,28.33
2018-01-19T20:03:46.535Z,27.50
2018-01-19T20:06:15.231Z,32.80
2018-01-19T20:08:43.303Z,30.80
2018-01-19T20:11:11.397Z,28.90
2018-01-19T20:13:39.366Z,31.20
2018-01-19T20:16:07.428Z,31.13
2018-01-19T20:18:35.360Z,27.23
2018-01-19T20:21:03.271Z,28.00
2018-01-19T20:23:31.380Z,27.77
2018-01-19T20:25:59.295Z,27.43
2018-01-19T20:28:27.948Z,25.90
2018-01-19T20:30:55.991Z,28.23
2018-01-19T20:33:23.921Z,26.87
2018-01-19T20:35:52.599Z,26.93
2018-01-19T20:38:21.395Z,29.07
2018-01-19T20:40:50.074Z,26.67
2018-01-19T20:43:18.749Z,26.30
2018-01-19T20:45:46.780Z,24.87
2018-01-19T20:48:14.702Z,27.73
2018-01-19T20:50:43.412Z,26.57
2018-01-19T20:53:11.451Z,26.43
2018-01-19T20:55:39.403Z,25.00
2018-01-19T20:58:07.348Z,24.83
2018-01-19T21:00:35.413Z,28.70
2018-01-19T21:03:03.339Z,27.53
2018-01-19T21:05:32.019Z,27.63
2018-01-19T21:08:00.055Z,27.40
2018-01-19T21:10:27.967Z,27.70
2018-01-19T21:12:56.793Z,30.10
2018-01-19T21:15:24.861Z,29.57
2018-01-19T21:17:52.927Z,29.57
2018-01-19T21:20:20.847Z,29.90
2018-01-19T21:22:48.901Z,31.33
2018-01-19T21:25:16.873Z,29.87
2018-01-19T21:27:44.797Z,30.27
2018-01-19T21:30:13.593Z,29.67
2018-01-19T21:32:41.487Z,29.53
2018-01-19T21:35:09.745Z,29.70
2018-01-19T21:37:37.814Z,30.00
2018-01-19T21:40:05.774Z,31.00
2018-01-19T21:42:34.443Z,29.07
2018-01-19T21:45:02.499Z,30.97
2018-01-19T21:47:30.424Z,30.80
2018-01-19T21:49:58.334Z,31.60
2018-01-19T21:52:26.377Z,32.13
2018-01-19T21:54:54.315Z,33.70
2018-01-19T21:57:22.991Z,31.60
2018-01-19T21:59:51.823Z,32.73
2018-01-19T22:02:19.739Z,32.77
2018-01-19T22:04:47.697Z,31.90
2018-01-19T22:07:15.914Z,33.50
2018-01-19T22:09:44.567Z,31.47
2018-01-19T22:12:12.495Z,33.87
2018-01-19T22:14:40.703Z,33.47
2018-01-19T22:17:08.763Z,31.37
2018-01-19T22:19:36.695Z,30.73
2018-01-19T22:22:04.726Z,32.23
2018-01-19T22:24:32.634Z,32.77
2018-01-19T22:27:00.611Z,31.37
2018-01-19T22:29:28.651Z,31.07
2018-01-19T22:31:57.463Z,33.40
2018-01-19T22:34:26.133Z,34.40
2018-01-19T22:36:55.171Z,32.60
2018-01-19T22:39:23.155Z,33.03
2018-01-19T22:41:51.803Z,31.87
2018-01-19T22:44:20.479Z,31.83
2018-01-19T22:46:49.812Z,32.33
2018-01-19T22:49:17.742Z,33.03
2018-01-19T22:51:46.557Z,34.50
2018-01-19T22:54:15.034Z,33.77
2018-01-19T22:56:43.779Z,32.33
2018-01-19T22:59:12.251Z,35.20
2018-01-19T23:01:40.319Z,33.73
2018-01-19T23:04:08.242Z,34.37
2018-01-19T23:06:37.449Z,32.07
2018-01-19T23:09:06.057Z,32.33
2018-01-19T23:11:35.351Z,31.63
2018-01-19T23:14:03.409Z,33.67
2018-01-19T23:16:31.689Z,34.17
2018-01-19T23:19:00.255Z,31.30
2018-01-19T23:21:29.454Z,34.00
2018-01-19T23:23:57.495Z,33.63
2018-01-19T23:26:26.071Z,33.63
2018-01-19T23:28:54.527Z,33.17
2018-01-19T23:31:22.443Z,35.10
2018-01-19T23:33:52.493Z,32.83
2018-01-19T23:36:21.359Z,32.90
2018-01-19T23:38:49.875Z,33.90
2018-01-19T23:41:19.502Z,32.47
2018-01-19T23:43:47.753Z,35.47
2018-01-19T23:46:16.406Z,33.07
2018-01-19T23:48:44.665Z,33.27
2018-01-19T23:51:13.071Z,32.63
2018-01-19T23:53:41.663Z,33.70
2018-01-19T23:56:10.229Z,33.67
2018-01-19T23:58:38.891Z,33.10
